»·PEaware :: N32314 KSNA-KBUR

N32314 :: KSNA-KBUR

FLIGHT INFORMATION

Flight Status: Arrived
Operator: Privately registered:
United States
More flights under this callsign
Pilot: John O. (31453)
Aircraft: CESSNA 172 SKYHAWK
(C172)
More flights by this aircraft type
Origin: KSNA John Wayne-Orange Co
United States
Destination: KBUR Bob Hope-Burbank
United States
More flights between these airports :: More routes between these airports
Route: POM
File this flight plan on PilotEdge
Remarks:
Altitude:
(Current/Filed)
2,400ft
Speed:
(Current/Filed)
0kts
Departed: 13-Jan-21 12:08 PM
Arrived: 13-Jan-21 12:43 PM
Distance/Time
Traveled:
40nm/0:34
Distance/Time
To Go:
Arrived

Flight Plot

Page will automatically refresh every two minutes.

Flight plan parsing failed; only flown route is shown


Map Options




Map Legend


Flown Route
Filed Route
Departure Airport
Arrival Airport
Navaid (VOR, NDB)
Fix

Horizontal Profiles

Position Reports

Time Latitude Longitude Heading Altitude Ground
Speed
13-Jan-21 11:58 33.672362 -117.866516 208 55ft 0kts
13-Jan-21 11:59 33.672362 -117.866516 208 55ft 0kts
13-Jan-21 12:00 33.672362 -117.866516 208 55ft 0kts
13-Jan-21 12:01 33.672362 -117.866516 208 55ft 0kts
13-Jan-21 12:02 33.672953 -117.867128 340 56ft 8kts
13-Jan-21 12:03 33.675371 -117.866308 27 55ft 16kts
13-Jan-21 12:04 33.679251 -117.863840 27 47ft 14kts
13-Jan-21 12:05 33.679994 -117.863677 298 45ft 0kts
13-Jan-21 12:06 33.679994 -117.863677 298 45ft 0kts
13-Jan-21 12:07 33.680113 -117.864011 267 45ft 6kts
13-Jan-21 12:08 33.677216 -117.866007 207 54ft 61kts
13-Jan-21 12:08 33.668867 -117.880342 319 580ft 86kts
13-Jan-21 12:10 33.699245 -117.888323 352 1245ft 104kts
13-Jan-21 12:11 33.724622 -117.879229 39 1848ft 100kts
13-Jan-21 12:12 33.746929 -117.859547 34 2447ft 98kts
13-Jan-21 12:12 33.765536 -117.843977 34 2947ft 96kts
13-Jan-21 12:14 33.791040 -117.822627 33 3648ft 94kts
13-Jan-21 12:14 33.810448 -117.814423 344 4146ft 93kts
13-Jan-21 12:15 33.837238 -117.822636 349 4471ft 110kts
13-Jan-21 12:16 33.867275 -117.829376 351 4488ft 109kts
13-Jan-21 12:17 33.897488 -117.834795 354 4491ft 109kts
13-Jan-21 12:18 33.925420 -117.838789 354 4848ft 90kts
13-Jan-21 12:19 33.948663 -117.842179 358 5335ft 85kts
13-Jan-21 12:20 33.972173 -117.831003 18 5743ft 95kts
13-Jan-21 12:21 33.998023 -117.820439 19 6153ft 97kts
13-Jan-21 12:22 34.023850 -117.809714 19 6492ft 105kts
13-Jan-21 12:23 34.054026 -117.810155 349 6516ft 115kts
13-Jan-21 12:24 34.085087 -117.819894 329 6520ft 117kts
13-Jan-21 12:25 34.099038 -117.856257 293 6519ft 121kts
13-Jan-21 12:26 34.110770 -117.894520 292 6520ft 121kts
13-Jan-21 12:27 34.122424 -117.932984 292 6502ft 124kts
13-Jan-21 12:28 34.132892 -117.970287 288 5994ft 113kts
13-Jan-21 12:29 34.140667 -118.007116 286 5495ft 113kts
13-Jan-21 12:30 34.145795 -118.044449 276 4995ft 114kts
13-Jan-21 12:31 34.147840 -118.082643 275 4495ft 114kts
13-Jan-21 12:32 34.149972 -118.120806 275 3994ft 113kts
13-Jan-21 12:33 34.152261 -118.159004 275 3497ft 114kts
13-Jan-21 12:34 34.154552 -118.197277 275 2988ft 113kts
13-Jan-21 12:35 34.159141 -118.234915 289 2474ft 112kts
13-Jan-21 12:36 34.171883 -118.269147 297 1982ft 108kts
13-Jan-21 12:37 34.183859 -118.299139 298 1793ft 92kts
13-Jan-21 12:38 34.194609 -118.325780 308 1774ft 85kts
13-Jan-21 12:39 34.212568 -118.341112 347 1818ft 73kts
13-Jan-21 12:40 34.228825 -118.352568 290 1739ft 77kts
13-Jan-21 12:41 34.217301 -118.362263 154 1072ft 82kts
13-Jan-21 12:42 34.202865 -118.358489 255 729ft 14kts
13-Jan-21 12:43 34.202810 -118.358797 258 729ft 0kts
13-Jan-21 12:44 34.201126 -118.359526 80 723ft 0kts
13-Jan-21 12:45 34.201126 -118.359526 80 723ft 0kts
13-Jan-21 12:46 34.201126 -118.359526 80 723ft 0kts
13-Jan-21 12:47 34.201126 -118.359526 80 723ft 0kts
13-Jan-21 12:48 34.201126 -118.359526 80 723ft 0kts
13-Jan-21 12:49 34.201126 -118.359526 80 723ft 0kts
13-Jan-21 12:50 34.201126 -118.359526 80 723ft 0kts
13-Jan-21 12:51 34.201126 -118.359526 80 723ft 0kts
13-Jan-21 12:52 34.201126 -118.359526 80 723ft 0kts
13-Jan-21 12:53 34.201126 -118.359526 80 723ft 0kts
13-Jan-21 12:54 34.201126 -118.359526 80 723ft 0kts
13-Jan-21 12:55 34.201126 -118.359526 80 723ft 0kts

Navigation Log

Ident Type
Flight plan parsing failed, navigation log unavailable